createdAt,value
2017-12-13T00:01:58.884Z,-4.18
2017-12-13T00:04:26.405Z,-4.24
2017-12-13T00:06:53.914Z,-4.13
2017-12-13T00:09:21.435Z,-4.08
2017-12-13T00:11:48.940Z,-3.97
2017-12-13T00:14:16.466Z,-3.89
2017-12-13T00:16:43.993Z,-4.25
2017-12-13T00:19:11.761Z,-4.49
2017-12-13T00:21:39.288Z,-4.48
2017-12-13T00:24:06.904Z,-4.29
2017-12-13T00:26:34.520Z,-3.86
2017-12-13T00:29:02.054Z,-3.99
2017-12-13T00:31:29.581Z,-4.02
2017-12-13T00:33:57.124Z,-3.86
2017-12-13T00:36:24.628Z,-3.63
2017-12-13T00:38:52.164Z,-3.45
2017-12-13T00:41:19.704Z,-3.50
2017-12-13T00:43:47.239Z,-3.65
2017-12-13T00:46:14.773Z,-4.00
2017-12-13T00:48:42.289Z,-3.59
2017-12-13T00:51:09.795Z,-3.99
2017-12-13T00:53:37.313Z,-4.00
2017-12-13T00:56:04.830Z,-3.93
2017-12-13T00:58:32.354Z,-4.10
2017-12-13T01:00:59.854Z,-4.59
2017-12-13T01:03:28.255Z,-4.82
2017-12-13T01:05:55.811Z,-4.58
2017-12-13T01:08:23.345Z,-4.38
2017-12-13T01:10:50.879Z,-4.44
2017-12-13T01:13:18.397Z,-4.17
2017-12-13T01:15:45.919Z,-3.82
2017-12-13T01:18:13.454Z,-3.74
2017-12-13T01:20:40.999Z,-3.68
2017-12-13T01:23:08.530Z,-3.46
2017-12-13T01:25:36.040Z,-3.41
2017-12-13T01:28:03.580Z,-3.37
2017-12-13T01:30:31.116Z,-3.89
2017-12-13T01:32:58.624Z,-4.09
2017-12-13T01:35:26.135Z,-4.44
2017-12-13T01:37:53.656Z,-4.07
2017-12-13T01:40:21.186Z,-4.05
2017-12-13T01:42:48.704Z,-3.59
2017-12-13T01:45:16.325Z,-3.78
2017-12-13T01:47:43.855Z,-3.83
2017-12-13T01:50:11.379Z,-4.49
2017-12-13T01:52:38.874Z,-4.75
2017-12-13T01:55:06.424Z,-4.69
2017-12-13T01:57:33.946Z,-4.70
2017-12-13T02:00:01.461Z,-4.68
2017-12-13T02:02:28.957Z,-4.80
2017-12-13T02:04:56.461Z,-4.93
2017-12-13T02:07:24.021Z,-4.70
2017-12-13T02:09:51.546Z,-4.81
2017-12-13T02:12:19.084Z,-4.56
2017-12-13T02:14:46.992Z,-4.61
2017-12-13T02:17:14.531Z,-4.44
2017-12-13T02:19:42.221Z,-4.55
2017-12-13T02:22:09.730Z,-4.29
2017-12-13T02:24:37.250Z,-4.83
2017-12-13T02:27:04.764Z,-4.93
2017-12-13T02:29:32.309Z,-4.79
2017-12-13T02:31:59.826Z,-4.59
2017-12-13T02:34:27.336Z,-4.73
2017-12-13T02:36:54.895Z,-4.82
2017-12-13T02:39:22.439Z,-4.92
2017-12-13T02:41:49.941Z,-5.10
2017-12-13T02:44:17.693Z,-4.90
2017-12-13T02:46:45.210Z,-5.08
2017-12-13T02:49:12.725Z,-5.18
2017-12-13T02:51:40.287Z,-5.09
2017-12-13T02:54:07.801Z,-5.01
2017-12-13T02:56:35.322Z,-4.67
2017-12-13T02:59:02.833Z,-5.03
2017-12-13T03:01:30.345Z,-5.16
2017-12-13T03:03:57.855Z,-5.27
2017-12-13T03:06:25.386Z,-5.34
2017-12-13T03:08:52.882Z,-5.35
2017-12-13T03:11:20.418Z,-5.30
2017-12-13T03:13:47.961Z,-5.12
2017-12-13T03:16:15.578Z,-5.24
2017-12-13T03:18:43.115Z,-5.10
2017-12-13T03:21:10.639Z,-5.48
2017-12-13T03:23:38.225Z,-5.34
2017-12-13T03:26:05.755Z,-4.84
2017-12-13T03:28:33.290Z,-4.82
2017-12-13T03:31:00.806Z,-5.24
2017-12-13T03:33:28.381Z,-5.25
2017-12-13T03:35:55.875Z,-5.59
2017-12-13T03:38:23.395Z,-5.66
2017-12-13T03:40:50.935Z,-5.72
2017-12-13T03:43:18.481Z,-5.49
2017-12-13T03:45:46.027Z,-5.02
2017-12-13T03:48:13.547Z,-4.59
2017-12-13T03:50:41.085Z,-4.69
2017-12-13T03:53:08.590Z,-5.16
2017-12-13T03:55:36.181Z,-4.62
2017-12-13T03:58:03.737Z,-4.45
2017-12-13T04:00:31.240Z,-4.35
2017-12-13T04:02:58.785Z,-4.52
2017-12-13T04:05:26.311Z,-4.68
2017-12-13T04:07:53.853Z,-5.24
2017-12-13T04:10:21.367Z,-5.03
2017-12-13T04:12:48.934Z,-4.58
2017-12-13T04:15:16.490Z,-4.53
2017-12-13T04:17:44.010Z,-4.69
2017-12-13T04:20:11.500Z,-4.90
2017-12-13T04:22:38.996Z,-5.46
2017-12-13T04:25:06.545Z,-5.73
2017-12-13T04:27:34.055Z,-5.36
2017-12-13T04:30:01.586Z,-5.33
2017-12-13T04:32:29.096Z,-5.31
2017-12-13T04:34:56.604Z,-5.29
2017-12-13T04:37:24.140Z,-5.16
2017-12-13T04:39:51.689Z,-4.91
2017-12-13T04:42:19.178Z,-5.09
2017-12-13T04:44:46.696Z,-5.57
2017-12-13T04:47:14.232Z,-5.61
2017-12-13T04:49:41.795Z,-5.56
2017-12-13T04:52:09.316Z,-5.65
2017-12-13T04:54:36.838Z,-5.68
2017-12-13T04:57:04.340Z,-5.67
2017-12-13T04:59:31.852Z,-5.56
2017-12-13T05:01:59.372Z,-5.52
2017-12-13T05:04:26.892Z,-5.20
2017-12-13T05:06:54.451Z,-4.95
2017-12-13T05:09:21.951Z,-4.81
2017-12-13T05:11:49.598Z,-4.38
2017-12-13T05:14:17.092Z,-4.68
2017-12-13T05:16:44.608Z,-5.14
2017-12-13T05:19:12.180Z,-5.25
2017-12-13T05:21:39.706Z,-5.19
2017-12-13T05:24:07.231Z,-5.24
2017-12-13T05:26:34.747Z,-5.38
2017-12-13T05:29:02.271Z,-5.35
2017-12-13T05:31:29.865Z,-5.56
2017-12-13T05:33:57.388Z,-5.36
2017-12-13T05:36:24.931Z,-5.14
2017-12-13T05:38:52.606Z,-5.32
2017-12-13T05:41:20.122Z,-5.08
2017-12-13T05:43:47.643Z,-5.03
2017-12-13T05:46:15.154Z,-5.03
2017-12-13T05:48:42.931Z,-5.07
2017-12-13T05:51:10.643Z,-5.32
2017-12-13T05:53:38.157Z,-5.59
2017-12-13T05:56:05.697Z,-5.71
2017-12-13T05:58:33.207Z,-5.71
2017-12-13T06:01:00.731Z,-5.26
2017-12-13T06:03:28.256Z,-4.70
2017-12-13T06:05:55.752Z,-4.52
2017-12-13T06:08:23.301Z,-4.57
2017-12-13T06:10:50.830Z,-4.52
2017-12-13T06:13:18.351Z,-4.81
2017-12-13T06:15:45.877Z,-5.23
2017-12-13T06:18:13.377Z,-5.51
2017-12-13T06:20:40.893Z,-5.76
2017-12-13T06:23:08.416Z,-5.87
2017-12-13T06:25:35.938Z,-5.50
2017-12-13T06:28:03.511Z,-5.19
2017-12-13T06:30:31.040Z,-5.36
2017-12-13T06:32:58.555Z,-5.00
2017-12-13T06:35:26.102Z,-4.88
2017-12-13T06:37:53.618Z,-4.60
2017-12-13T06:40:21.168Z,-5.10
2017-12-13T06:42:48.721Z,-5.70
2017-12-13T06:45:16.249Z,-5.65
2017-12-13T06:47:43.777Z,-5.29
2017-12-13T06:50:11.313Z,-5.21
2017-12-13T06:52:38.833Z,-5.35
2017-12-13T06:55:06.351Z,-5.05
2017-12-13T06:57:33.861Z,-4.75
2017-12-13T07:00:01.391Z,-4.79
2017-12-13T07:02:28.999Z,-4.79
2017-12-13T07:04:56.532Z,-5.19
2017-12-13T07:07:24.051Z,-4.71
2017-12-13T07:09:51.584Z,-4.98
2017-12-13T07:12:19.101Z,-5.04
2017-12-13T07:14:46.636Z,-5.42
2017-12-13T07:17:14.148Z,-5.10
2017-12-13T07:19:41.652Z,-5.06
2017-12-13T07:22:09.156Z,-4.93
2017-12-13T07:24:36.713Z,-5.03
2017-12-13T07:27:04.236Z,-4.85
2017-12-13T07:29:31.768Z,-4.47
2017-12-13T07:31:59.313Z,-4.75
2017-12-13T07:34:26.831Z,-4.97
2017-12-13T07:36:54.363Z,-5.34
2017-12-13T07:39:21.922Z,-5.49
2017-12-13T07:41:49.414Z,-5.05
2017-12-13T07:44:16.932Z,-4.69
2017-12-13T07:46:44.468Z,-4.83
2017-12-13T07:49:11.998Z,-4.70
2017-12-13T07:51:39.532Z,-4.50
2017-12-13T07:54:07.053Z,-4.72
2017-12-13T07:56:34.568Z,-4.41
2017-12-13T07:59:02.107Z,-4.50
2017-12-13T08:01:29.652Z,-4.26
2017-12-13T08:03:57.162Z,-4.56
2017-12-13T08:06:24.699Z,-4.26
2017-12-13T08:08:52.207Z,-4.41
2017-12-13T08:11:19.724Z,-4.22
2017-12-13T08:13:47.271Z,-3.75
2017-12-13T08:16:14.793Z,-3.71
2017-12-13T08:18:42.316Z,-3.63
2017-12-13T08:21:10.037Z,-3.05
2017-12-13T08:23:37.544Z,-2.74
2017-12-13T08:26:05.069Z,-2.39
2017-12-13T08:28:32.638Z,-2.11
2017-12-13T08:31:00.176Z,-1.87
2017-12-13T08:33:27.723Z,-1.72
2017-12-13T08:35:55.249Z,-2.11
2017-12-13T08:38:22.783Z,-1.37
2017-12-13T08:40:50.365Z,-1.94
2017-12-13T08:43:17.894Z,-1.39
2017-12-13T08:45:45.463Z,-1.38
2017-12-13T08:48:13.002Z,-0.80
2017-12-13T08:50:40.533Z,-0.21
2017-12-13T08:53:08.056Z,0.08
2017-12-13T08:55:35.584Z,1.20
2017-12-13T08:58:03.168Z,1.37
2017-12-13T09:00:30.697Z,0.77
2017-12-13T09:02:58.234Z,2.33
2017-12-13T09:05:25.751Z,3.51
2017-12-13T09:07:53.277Z,5.60
2017-12-13T09:10:21.002Z,6.17
2017-12-13T09:12:48.529Z,4.90
2017-12-13T09:15:16.093Z,4.35
2017-12-13T09:17:43.607Z,5.14
2017-12-13T09:20:11.128Z,6.77
2017-12-13T09:22:38.814Z,6.72
2017-12-13T09:25:06.462Z,7.28
2017-12-13T09:27:34.007Z,7.50
2017-12-13T09:30:01.584Z,8.40
2017-12-13T09:32:29.104Z,9.57
2017-12-13T09:34:56.613Z,8.17
2017-12-13T09:37:24.116Z,8.52
2017-12-13T09:39:51.644Z,11.97
2017-12-13T09:42:19.182Z,13.75
2017-12-13T09:44:46.718Z,10.76
2017-12-13T09:47:14.229Z,6.83
2017-12-13T09:49:41.754Z,8.80
2017-12-13T09:52:09.268Z,7.94
2017-12-13T09:54:36.797Z,7.09
2017-12-13T09:57:04.339Z,7.24
2017-12-13T09:59:31.863Z,6.63
2017-12-13T10:01:59.395Z,8.71
2017-12-13T10:04:26.924Z,7.56
2017-12-13T10:06:54.463Z,7.82
2017-12-13T10:09:21.974Z,11.64
2017-12-13T10:11:49.494Z,11.65
2017-12-13T10:14:17.008Z,12.62
2017-12-13T10:16:44.549Z,13.11
2017-12-13T10:19:12.070Z,10.37
2017-12-13T10:21:39.602Z,10.45
2017-12-13T10:24:07.172Z,11.34
2017-12-13T10:26:34.838Z,12.35
2017-12-13T10:29:02.363Z,10.62
2017-12-13T10:31:29.874Z,9.70
2017-12-13T10:33:57.389Z,9.61
2017-12-13T10:36:24.938Z,11.28
2017-12-13T10:38:52.467Z,10.96
2017-12-13T10:41:20.020Z,9.27
2017-12-13T10:43:47.579Z,8.81
2017-12-13T10:46:15.104Z,11.11
2017-12-13T10:48:42.641Z,11.67
2017-12-13T10:51:10.173Z,9.78
2017-12-13T10:53:37.689Z,10.79
2017-12-13T10:56:05.224Z,10.23
2017-12-13T10:58:32.750Z,10.68
2017-12-13T11:01:00.299Z,9.73
2017-12-13T11:03:27.838Z,11.51
2017-12-13T11:05:55.348Z,12.17
2017-12-13T11:08:22.880Z,9.03
2017-12-13T11:10:50.388Z,7.48
2017-12-13T11:13:17.949Z,8.12
2017-12-13T11:15:45.440Z,7.78
2017-12-13T11:18:12.953Z,9.06
2017-12-13T11:20:40.480Z,8.99
2017-12-13T11:23:08.038Z,10.12
2017-12-13T11:25:35.573Z,9.50
2017-12-13T11:28:03.080Z,10.50
2017-12-13T11:30:30.590Z,10.74
2017-12-13T11:32:58.097Z,8.90
2017-12-13T11:35:25.618Z,10.60
2017-12-13T11:37:53.180Z,11.53
2017-12-13T11:40:20.713Z,12.11
2017-12-13T11:42:48.228Z,13.46
2017-12-13T11:45:15.763Z,13.85
2017-12-13T11:47:43.305Z,11.08
2017-12-13T11:50:10.814Z,12.98
2017-12-13T11:52:38.370Z,12.50
2017-12-13T11:55:05.898Z,9.59
2017-12-13T11:57:33.432Z,9.27
2017-12-13T12:00:00.954Z,9.57
2017-12-13T12:02:28.460Z,8.79
2017-12-13T12:04:55.979Z,7.74
2017-12-13T12:07:23.494Z,7.25
2017-12-13T12:09:51.000Z,7.69
2017-12-13T12:12:18.513Z,7.04
2017-12-13T12:14:46.019Z,6.51
2017-12-13T12:17:14.599Z,6.64
2017-12-13T12:19:42.128Z,6.19
2017-12-13T12:22:09.686Z,5.77
2017-12-13T12:24:37.214Z,5.78
2017-12-13T12:27:04.729Z,5.71
2017-12-13T12:29:32.289Z,5.25
2017-12-13T12:31:59.814Z,5.20
2017-12-13T12:34:27.513Z,4.96
2017-12-13T12:36:55.059Z,5.30
2017-12-13T12:39:22.574Z,4.91
2017-12-13T12:41:50.104Z,5.10
2017-12-13T12:44:17.629Z,5.21
2017-12-13T12:46:45.163Z,5.32
2017-12-13T12:49:12.664Z,4.98
2017-12-13T12:51:40.186Z,5.20
2017-12-13T12:54:07.730Z,4.71
2017-12-13T12:56:35.250Z,5.18
2017-12-13T12:59:02.771Z,4.80
2017-12-13T13:01:30.293Z,4.65
2017-12-13T13:03:57.796Z,4.59
2017-12-13T13:06:25.310Z,5.17
2017-12-13T13:08:52.848Z,4.89
2017-12-13T13:11:20.403Z,4.83
2017-12-13T13:13:47.923Z,4.85
2017-12-13T13:16:15.428Z,4.97
2017-12-13T13:18:42.961Z,4.92
2017-12-13T13:21:10.479Z,5.04
2017-12-13T13:23:38.016Z,5.11
2017-12-13T13:26:05.521Z,4.83
2017-12-13T13:28:33.071Z,4.91
2017-12-13T13:31:00.584Z,4.59
2017-12-13T13:33:28.114Z,4.61
2017-12-13T13:35:55.640Z,4.53
2017-12-13T13:38:23.157Z,4.79
2017-12-13T13:40:50.676Z,4.60
2017-12-13T13:43:18.211Z,5.07
2017-12-13T13:45:45.862Z,5.30
2017-12-13T13:48:13.373Z,5.29
2017-12-13T13:50:40.902Z,5.37
2017-12-13T13:53:08.420Z,4.68
2017-12-13T13:55:36.060Z,5.00
2017-12-13T13:58:03.573Z,5.13
2017-12-13T14:00:31.117Z,4.74
2017-12-13T14:02:58.664Z,4.90
2017-12-13T14:05:26.173Z,5.20
2017-12-13T14:07:53.686Z,5.09
2017-12-13T14:10:21.209Z,4.53
2017-12-13T14:12:48.720Z,4.58
2017-12-13T14:15:16.286Z,4.70
2017-12-13T14:17:43.823Z,4.81
2017-12-13T14:20:11.330Z,4.69
2017-12-13T14:22:38.863Z,4.48
2017-12-13T14:25:06.375Z,4.30
2017-12-13T14:27:33.882Z,4.38
2017-12-13T14:30:01.401Z,4.22
2017-12-13T14:32:28.916Z,4.72
2017-12-13T14:34:56.436Z,4.22
2017-12-13T14:37:23.944Z,4.40
2017-12-13T14:39:51.485Z,4.43
2017-12-13T14:42:19.014Z,3.96
2017-12-13T14:44:46.570Z,4.42
2017-12-13T14:47:14.120Z,4.19
2017-12-13T14:49:41.671Z,4.13
2017-12-13T14:52:09.215Z,4.05
2017-12-13T14:54:36.744Z,4.44
2017-12-13T14:57:04.338Z,4.46
2017-12-13T14:59:31.848Z,4.53
2017-12-13T15:01:59.391Z,4.73
2017-12-13T15:04:26.916Z,4.39
2017-12-13T15:06:54.436Z,4.26
2017-12-13T15:09:21.939Z,4.16
2017-12-13T15:11:49.455Z,4.25
2017-12-13T15:14:16.974Z,4.30
2017-12-13T15:16:44.531Z,4.33
2017-12-13T15:19:12.049Z,4.26
2017-12-13T15:21:39.565Z,4.33
2017-12-13T15:24:07.079Z,4.25
2017-12-13T15:26:34.681Z,4.41
2017-12-13T15:29:02.210Z,4.54
2017-12-13T15:31:29.735Z,4.47
2017-12-13T15:33:57.326Z,4.57
2017-12-13T15:36:24.884Z,4.54
2017-12-13T15:38:52.406Z,4.36
2017-12-13T15:41:19.936Z,4.51
2017-12-13T15:43:47.457Z,4.49
2017-12-13T15:46:14.972Z,4.55
2017-12-13T15:48:42.549Z,4.55
2017-12-13T15:51:10.059Z,4.47
2017-12-13T15:53:37.764Z,4.63
2017-12-13T15:56:05.330Z,4.68
2017-12-13T15:58:32.875Z,4.58
2017-12-13T16:01:00.394Z,4.38
2017-12-13T16:03:27.902Z,4.21
2017-12-13T16:05:55.436Z,4.11
2017-12-13T16:08:22.965Z,4.03
2017-12-13T16:10:50.482Z,4.04
2017-12-13T16:13:18.011Z,3.94
2017-12-13T16:15:45.701Z,3.92
2017-12-13T16:18:13.219Z,3.95
2017-12-13T16:20:40.802Z,4.05
2017-12-13T16:23:08.286Z,4.15
2017-12-13T16:25:35.821Z,4.16
2017-12-13T16:28:03.371Z,4.12
2017-12-13T16:30:30.892Z,4.25
2017-12-13T16:32:58.413Z,4.13
2017-12-13T16:35:25.945Z,4.19
2017-12-13T16:37:53.472Z,4.26
2017-12-13T16:40:21.090Z,4.24
2017-12-13T16:42:48.640Z,4.19
2017-12-13T16:45:16.160Z,4.11
2017-12-13T16:47:43.709Z,4.21
2017-12-13T16:50:11.248Z,4.22
2017-12-13T16:52:38.775Z,4.16
2017-12-13T16:55:06.307Z,4.25
2017-12-13T16:57:33.855Z,4.33
2017-12-13T17:00:01.376Z,4.28
2017-12-13T17:02:28.883Z,4.22
2017-12-13T17:04:56.401Z,4.24
2017-12-13T17:07:23.931Z,4.47
2017-12-13T17:09:51.459Z,4.49
2017-12-13T17:12:19.050Z,4.44
2017-12-13T17:14:46.555Z,4.46
2017-12-13T17:17:14.117Z,4.52
2017-12-13T17:19:41.673Z,4.50
2017-12-13T17:22:09.204Z,4.55
2017-12-13T17:24:36.720Z,4.53
2017-12-13T17:27:04.314Z,4.54
2017-12-13T17:29:31.855Z,4.56
2017-12-13T17:31:59.370Z,4.56
2017-12-13T17:34:26.889Z,4.53
2017-12-13T17:36:54.419Z,4.67
2017-12-13T17:39:21.931Z,4.64
2017-12-13T17:41:49.437Z,4.73
2017-12-13T17:44:16.977Z,4.67
2017-12-13T17:46:44.535Z,4.55
2017-12-13T17:49:12.064Z,4.54
2017-12-13T17:51:39.690Z,4.66
2017-12-13T17:54:07.206Z,4.59
2017-12-13T17:56:34.737Z,4.77
2017-12-13T17:59:02.255Z,4.67
2017-12-13T18:01:29.829Z,4.76
2017-12-13T18:03:57.381Z,4.67
2017-12-13T18:06:24.901Z,4.80
2017-12-13T18:08:52.430Z,4.75
2017-12-13T18:11:20.069Z,4.83
2017-12-13T18:13:47.593Z,4.85
2017-12-13T18:16:15.132Z,4.98
2017-12-13T18:18:42.668Z,5.00
2017-12-13T18:21:10.201Z,4.92
2017-12-13T18:23:37.740Z,4.97
2017-12-13T18:26:05.286Z,4.99
2017-12-13T18:28:32.837Z,4.93
2017-12-13T18:31:00.342Z,4.84
2017-12-13T18:33:27.876Z,4.97
2017-12-13T18:35:55.393Z,5.06
2017-12-13T18:38:22.915Z,4.95
2017-12-13T18:40:50.480Z,4.98
2017-12-13T18:43:18.000Z,4.90
2017-12-13T18:45:45.523Z,5.09
2017-12-13T18:48:13.042Z,5.01
2017-12-13T18:50:40.577Z,5.01
2017-12-13T18:53:08.122Z,5.06
2017-12-13T18:55:35.689Z,5.18
2017-12-13T18:58:03.328Z,5.00
2017-12-13T19:00:30.847Z,5.19
2017-12-13T19:02:58.495Z,5.10
2017-12-13T19:05:26.045Z,4.89
2017-12-13T19:07:53.595Z,5.06
2017-12-13T19:10:21.132Z,5.19
2017-12-13T19:12:48.691Z,5.18
2017-12-13T19:15:16.220Z,4.97
2017-12-13T19:17:43.758Z,4.77
2017-12-13T19:20:11.313Z,4.48
2017-12-13T19:22:38.827Z,4.41
2017-12-13T19:25:06.400Z,4.58
2017-12-13T19:27:33.946Z,4.69
2017-12-13T19:30:01.506Z,4.96
2017-12-13T19:32:29.047Z,4.94
2017-12-13T19:34:56.580Z,5.04
2017-12-13T19:37:24.103Z,4.98
2017-12-13T19:39:51.627Z,4.76
2017-12-13T19:42:19.210Z,5.02
2017-12-13T19:44:46.729Z,5.38
2017-12-13T19:47:14.405Z,5.41
2017-12-13T19:49:41.963Z,5.36
2017-12-13T19:52:09.510Z,5.22
2017-12-13T19:54:37.071Z,5.47
2017-12-13T19:57:04.607Z,5.36
2017-12-13T19:59:32.149Z,5.20
2017-12-13T20:01:59.700Z,5.18
2017-12-13T20:04:27.256Z,5.08
2017-12-13T20:06:54.812Z,4.93
2017-12-13T20:09:22.356Z,4.98
2017-12-13T20:11:49.901Z,4.74
2017-12-13T20:14:17.456Z,4.61
2017-12-13T20:16:44.980Z,5.14
2017-12-13T20:19:12.520Z,5.13
2017-12-13T20:21:40.055Z,5.11
2017-12-13T20:24:07.606Z,5.40
2017-12-13T20:26:35.140Z,5.31
2017-12-13T20:29:02.675Z,5.37
2017-12-13T20:31:30.202Z,5.47
2017-12-13T20:33:57.724Z,5.57
2017-12-13T20:36:25.280Z,5.60
2017-12-13T20:38:52.800Z,5.68
2017-12-13T20:41:20.330Z,5.77
2017-12-13T20:43:47.871Z,5.81
2017-12-13T20:46:15.529Z,5.86
2017-12-13T20:48:43.034Z,5.97
2017-12-13T20:51:10.564Z,5.86
2017-12-13T20:53:38.081Z,5.67
2017-12-13T20:56:05.672Z,5.42
2017-12-13T20:58:33.210Z,5.46
2017-12-13T21:01:00.886Z,5.47
2017-12-13T21:03:28.459Z,5.43
2017-12-13T21:05:55.974Z,5.30
2017-12-13T21:08:23.491Z,5.36
2017-12-13T21:10:51.026Z,5.28
2017-12-13T21:13:18.577Z,5.34
2017-12-13T21:15:46.106Z,5.21
2017-12-13T21:18:13.639Z,5.10
2017-12-13T21:20:41.168Z,5.23
2017-12-13T21:23:08.690Z,5.22
2017-12-13T21:25:36.214Z,5.35
2017-12-13T21:28:03.754Z,5.44
2017-12-13T21:30:31.281Z,5.35
2017-12-13T21:32:58.808Z,5.32
2017-12-13T21:35:26.336Z,5.25
2017-12-13T21:37:53.865Z,5.28
2017-12-13T21:40:21.396Z,5.39
2017-12-13T21:42:48.951Z,5.52
2017-12-13T21:45:16.483Z,5.29
2017-12-13T21:47:43.997Z,5.40
2017-12-13T21:50:11.522Z,5.53
2017-12-13T21:52:39.023Z,5.46
2017-12-13T21:55:06.581Z,5.75
2017-12-13T21:57:34.096Z,5.67
2017-12-13T22:00:01.616Z,5.62
2017-12-13T22:02:29.163Z,5.74
2017-12-13T22:04:56.726Z,5.60
2017-12-13T22:07:24.261Z,5.68
2017-12-13T22:09:51.824Z,5.56
2017-12-13T22:12:19.346Z,5.54
2017-12-13T22:14:46.856Z,5.59
2017-12-13T22:17:14.403Z,5.58
2017-12-13T22:19:41.940Z,5.58
2017-12-13T22:22:09.446Z,5.54
2017-12-13T22:24:37.031Z,5.44
2017-12-13T22:27:04.582Z,5.49
2017-12-13T22:29:32.114Z,5.49
2017-12-13T23:12:12.992Z,5.44
2017-12-13T23:14:40.524Z,5.35
2017-12-13T23:17:08.052Z,5.42
2017-12-13T23:19:35.589Z,5.45
2017-12-13T23:22:03.102Z,5.51
2017-12-13T23:24:30.602Z,5.63
2017-12-13T23:26:58.132Z,5.70
2017-12-13T23:29:25.654Z,5.69
2017-12-13T23:31:53.207Z,5.65
2017-12-13T23:34:20.730Z,5.76
2017-12-13T23:36:48.269Z,5.73
2017-12-13T23:39:15.782Z,5.76
2017-12-13T23:41:43.286Z,5.84
2017-12-13T23:44:10.813Z,5.83
2017-12-13T23:46:38.422Z,5.83
2017-12-13T23:49:05.925Z,5.82
2017-12-13T23:51:33.458Z,5.78
2017-12-13T23:54:00.968Z,5.91
2017-12-13T23:56:28.477Z,5.81
2017-12-13T23:58:55.978Z,5.81
